< < Back
Terminal Aerodrome Forecast


Current Version              Previous Versions:   1  2  3  4  5  6  7  8  9  

Terminal Aerodrome Forecast

577
FTAK31 PAJN 291727
TAFAGS
TAF
PAGS 291727Z 2918/3018 00000KT P6SM FEW050 OVC060
     FM291900 22008KT P6SM VCSH FEW020 OVC050
     FM300500 23004KT P6SM BKN020 OVC030
     FM300900 VRB03KT P6SM VCSH BKN020 OVC030
     FM301200 00000KT P6SM -RA BKN015 OVC025
      AMD LTD TO CLD VIS AND WIND=



Latest METAR

650
SAUS70 KWBC 300100 RRH
MTRAGS
METAR KAGS 300053Z 17005KT 10SM -RA CLR 27/22 A2993 RMK AO2 RAB46 SLP134
P0000 T02670217


USA.gov is the U.S. government's official web portal to all federal, state and local government web resources and services.